Time;durP1;ratioP1;P1;durP2;ratioP2;P2;SDS_P1;SDS_P2;PMS_P1;PMS_P2;Temp;Humidity;BMP_temperature;BMP_pressure;BME280_temperature;BME280_humidity;BME280_pressure;Samples;Min_cycle;Max_cycle;Signal;HPM_P1;HPM_P2
2023/04/25 00:00:37;;;;;;;10.23;7.70;;;11.90;68.80;;;;;;5071556;27;115329;-84
2023/04/25 00:03:05;;;;;;;10.05;7.20;;;11.90;68.80;;;;;;5071916;27;115117;-84
2023/04/25 00:05:32;;;;;;;7.82;6.40;;;11.90;68.70;;;;;;5071549;27;114312;-84
2023/04/25 00:08:00;;;;;;;9.07;6.53;;;11.90;68.70;;;;;;5052187;27;114352;-82
2023/04/25 00:10:28;;;;;;;8.80;6.32;;;11.90;68.70;;;;;;5069352;27;114983;-83
2023/04/25 00:12:55;;;;;;;8.13;6.10;;;11.80;68.80;;;;;;5056115;27;117838;-83
2023/04/25 00:15:22;;;;;;;8.73;7.07;;;11.80;69.00;;;;;;5056778;27;114430;-82
2023/04/25 00:17:49;;;;;;;9.07;6.65;;;11.80;69.20;;;;;;5067187;27;114296;-83
2023/04/25 00:20:18;;;;;;;10.63;8.13;;;11.80;69.10;;;;;;5066715;27;114922;-82
2023/04/25 00:22:45;;;;;;;8.25;7.22;;;11.80;69.10;;;;;;5059042;27;114538;-83
2023/04/25 00:25:12;;;;;;;9.32;7.93;;;11.80;69.00;;;;;;5071943;27;114443;-83
2023/04/25 00:27:39;;;;;;;9.98;8.02;;;11.80;68.90;;;;;;5053547;27;114219;-83
2023/04/25 00:30:07;;;;;;;10.02;7.82;;;11.80;69.10;;;;;;5048387;27;115284;-83
2023/04/25 00:32:36;;;;;;;10.05;8.27;;;11.80;69.20;;;;;;5059159;27;114712;-83
2023/04/25 00:35:04;;;;;;;10.55;8.38;;;11.70;69.20;;;;;;5055849;27;114205;-81
2023/04/25 00:37:32;;;;;;;12.40;9.15;;;11.70;69.30;;;;;;5067655;27;114044;-81
2023/04/25 00:39:59;;;;;;;10.73;8.85;;;11.70;69.40;;;;;;5070173;27;114975;-82
2023/04/25 00:42:26;;;;;;;10.70;8.75;;;11.70;69.40;;;;;;5050834;27;114230;-82
2023/04/25 00:44:55;;;;;;;13.05;8.98;;;11.70;69.20;;;;;;5051175;27;115473;-82
2023/04/25 00:47:22;;;;;;;13.43;9.85;;;11.70;69.20;;;;;;5033504;27;114275;-82
2023/04/25 00:49:50;;;;;;;11.93;10.30;;;11.70;69.10;;;;;;5049106;27;114952;-81
2023/04/25 00:52:17;;;;;;;12.73;11.00;;;11.70;69.00;;;;;;5073735;27;118954;-81
2023/04/25 00:54:44;;;;;;;13.63;11.32;;;11.70;69.10;;;;;;5072520;27;114276;-82
2023/04/25 00:57:11;;;;;;;16.27;12.13;;;11.70;69.10;;;;;;5092426;27;114235;-82
2023/04/25 00:59:38;;;;;;;15.52;12.10;;;11.70;69.20;;;;;;5052208;27;120116;-82
2023/04/25 01:02:05;;;;;;;12.95;11.10;;;11.70;69.20;;;;;;5071111;27;114611;-82
2023/04/25 01:04:33;;;;;;;14.90;12.13;;;11.70;69.30;;;;;;5054644;27;114535;-82
2023/04/25 01:07:02;;;;;;;13.75;12.00;;;11.70;69.20;;;;;;5072982;27;114489;-82
2023/04/25 01:09:31;;;;;;;14.20;11.70;;;11.70;69.30;;;;;;5053041;27;114946;-82
2023/04/25 01:11:58;;;;;;;12.27;10.98;;;11.70;69.10;;;;;;5048114;27;114698;-83
2023/04/25 01:14:25;;;;;;;12.32;9.75;;;11.70;69.00;;;;;;5066159;27;114443;-82
2023/04/25 01:16:55;;;;;;;11.07;9.60;;;11.70;68.90;;;;;;5066383;27;114188;-82
2023/04/25 01:19:22;;;;;;;11.32;9.65;;;11.70;68.80;;;;;;5066072;27;116026;-83
2023/04/25 01:21:50;;;;;;;8.85;7.93;;;11.70;68.80;;;;;;5033887;27;114727;-82
2023/04/25 01:24:18;;;;;;;9.38;7.80;;;11.70;68.40;;;;;;5050010;27;114654;-84
2023/04/25 01:26:49;;;;;;;10.00;6.70;;;11.70;68.20;;;;;;5051669;27;114129;-83
2023/04/25 01:29:20;;;;;;;9.38;6.30;;;11.60;67.80;;;;;;5011360;27;117498;-82
2023/04/25 01:31:47;;;;;;;8.15;6.60;;;11.60;67.70;;;;;;5048542;27;115325;-83
2023/04/25 01:34:15;;;;;;;8.77;7.60;;;11.60;67.80;;;;;;5033725;27;114198;-83
2023/04/25 01:36:42;;;;;;;7.95;6.88;;;11.60;67.90;;;;;;5054880;27;115861;-82
2023/04/25 01:39:09;;;;;;;8.30;7.10;;;11.60;68.00;;;;;;5049116;27;115572;-82
2023/04/25 01:41:36;;;;;;;10.07;7.57;;;11.60;68.00;;;;;;5047694;27;116527;-82
2023/04/25 01:44:03;;;;;;;9.55;7.10;;;11.60;68.10;;;;;;5032469;27;114291;-82
2023/04/25 01:46:31;;;;;;;8.43;7.20;;;11.60;68.30;;;;;;5081833;27;114472;-82
2023/04/25 01:49:01;;;;;;;8.88;7.53;;;11.50;68.20;;;;;;5051859;27;115126;-83
2023/04/25 01:51:29;;;;;;;9.60;7.22;;;11.50;67.80;;;;;;5049305;27;118323;-83
2023/04/25 01:53:58;;;;;;;9.38;7.53;;;11.60;67.90;;;;;;5068574;27;114403;-84
2023/04/25 01:56:31;;;;;;;9.88;7.72;;;11.50;68.00;;;;;;5087476;27;114292;-83
2023/04/25 01:58:59;;;;;;;10.68;7.20;;;11.50;68.20;;;;;;5067886;27;114329;-83
2023/04/25 02:01:48;;;;;;;9.88;7.57;;;11.40;67.80;;;;;;5059192;27;114598;-83
2023/04/25 02:04:22;;;;;;;9.75;7.72;;;11.30;67.90;;;;;;5086239;27;114371;-82
2023/04/25 02:06:50;;;;;;;11.07;8.05;;;11.30;67.90;;;;;;5069142;27;114564;-82
2023/04/25 02:09:17;;;;;;;9.55;6.68;;;11.30;67.60;;;;;;5085595;27;115646;-83
2023/04/25 02:11:50;;;;;;;7.97;5.80;;;11.20;67.20;;;;;;5085950;27;115055;-82
2023/04/25 02:14:37;;;;;;;7.40;5.90;;;11.10;67.10;;;;;;5072680;27;114729;-82
2023/04/25 02:17:12;;;;;;;8.60;6.70;;;11.10;67.20;;;;;;5085132;27;114477;-82
2023/04/25 02:19:39;;;;;;;10.00;6.35;;;11.10;67.10;;;;;;5084717;27;115516;-83
2023/04/25 02:22:07;;;;;;;7.88;6.10;;;11.00;67.20;;;;;;5085241;27;114651;-82
2023/04/25 02:24:34;;;;;;;8.18;5.88;;;11.00;66.90;;;;;;5087123;27;114225;-82
2023/04/25 02:27:03;;;;;;;6.75;5.90;;;10.90;66.70;;;;;;5071200;27;114123;-82
2023/04/25 02:29:30;;;;;;;7.07;5.82;;;10.90;67.00;;;;;;5088401;27;114922;-81
2023/04/25 02:31:57;;;;;;;7.22;5.55;;;10.80;67.00;;;;;;5056444;27;115076;-81
2023/04/25 02:34:25;;;;;;;8.13;5.57;;;10.80;66.70;;;;;;5089563;27;114161;-81
2023/04/25 02:36:53;;;;;;;8.55;5.93;;;10.80;66.90;;;;;;5088329;27;114277;-83
2023/04/25 02:39:22;;;;;;;8.80;5.55;;;10.70;66.70;;;;;;5088881;27;115043;-82
2023/04/25 02:41:49;;;;;;;8.02;5.80;;;10.70;67.00;;;;;;5089625;27;114674;-82
2023/04/25 02:44:16;;;;;;;7.55;5.53;;;10.70;67.20;;;;;;5073069;27;114334;-83
2023/04/25 02:46:45;;;;;;;7.53;6.05;;;10.60;67.20;;;;;;5040766;27;114222;-83
2023/04/25 02:49:12;;;;;;;7.25;5.65;;;10.70;67.40;;;;;;5090503;27;117047;-83
2023/04/25 02:51:39;;;;;;;9.32;6.22;;;10.70;67.40;;;;;;5071522;27;117636;-83
2023/04/25 02:54:07;;;;;;;7.45;6.18;;;10.70;67.40;;;;;;5070893;27;114472;-84
2023/04/25 02:56:40;;;;;;;7.68;5.50;;;10.70;67.70;;;;;;5054240;27;114785;-83
2023/04/25 02:59:12;;;;;;;7.15;5.97;;;10.70;67.60;;;;;;5075687;27;114906;-83
2023/04/25 03:01:39;;;;;;;8.63;6.65;;;10.70;67.70;;;;;;5074716;27;114664;-83
2023/04/25 03:04:07;;;;;;;8.55;6.63;;;10.70;68.00;;;;;;5074115;27;114389;-83
2023/04/25 03:06:34;;;;;;;9.32;6.90;;;10.70;67.80;;;;;;5071173;27;114750;-82
2023/04/25 03:09:01;;;;;;;9.52;7.25;;;10.70;67.80;;;;;;5089062;27;115339;-83
2023/04/25 03:11:28;;;;;;;9.63;6.75;;;10.70;68.00;;;;;;5087333;27;114617;-83
2023/04/25 03:13:56;;;;;;;9.20;7.68;;;10.70;67.90;;;;;;5087788;27;114567;-84
2023/04/25 03:16:23;;;;;;;9.80;7.40;;;10.70;67.90;;;;;;5088799;27;114435;-83
2023/04/25 03:18:51;;;;;;;10.90;8.85;;;10.70;68.00;;;;;;5089618;27;115377;-83
2023/04/25 03:21:19;;;;;;;11.70;10.50;;;10.70;67.70;;;;;;5088202;27;115147;-83
2023/04/25 03:23:46;;;;;;;13.82;12.43;;;10.70;67.10;;;;;;5063305;27;114332;-84
2023/04/25 03:26:14;;;;;;;12.27;10.98;;;10.70;66.90;;;;;;5071858;27;114293;-84
2023/04/25 03:28:43;;;;;;;9.88;8.75;;;10.70;67.00;;;;;;5071114;27;114995;-83
2023/04/25 03:31:11;;;;;;;8.98;7.82;;;10.70;66.90;;;;;;5087008;27;115528;-82
2023/04/25 03:33:39;;;;;;;9.98;8.00;;;10.70;66.80;;;;;;5087696;27;114286;-82
2023/04/25 03:36:07;;;;;;;10.20;7.88;;;10.70;66.90;;;;;;5090334;27;114313;-83
2023/04/25 03:38:35;;;;;;;7.55;6.55;;;10.70;67.20;;;;;;5090392;27;115194;-83
2023/04/25 03:41:02;;;;;;;7.35;5.82;;;10.70;66.90;;;;;;5070413;27;114683;-83
2023/04/25 03:43:42;;;;;;;7.05;6.00;;;10.60;67.00;;;;;;5057402;27;114251;-83
2023/04/25 03:46:12;;;;;;;9.10;6.57;;;10.70;67.00;;;;;;5088935;27;114436;-84
2023/04/25 03:48:40;;;;;;;11.40;8.05;;;10.70;66.90;;;;;;5089553;27;114329;-84
2023/04/25 03:51:10;;;;;;;8.50;7.60;;;10.70;67.00;;;;;;5091242;27;114703;-83
2023/04/25 03:53:41;;;;;;;11.43;7.70;;;10.70;67.10;;;;;;5077703;27;114130;-84
2023/04/25 03:56:14;;;;;;;9.50;7.18;;;10.70;66.90;;;;;;5093786;27;114245;-84
2023/04/25 03:58:44;;;;;;;9.95;7.93;;;10.70;67.00;;;;;;5092450;27;115970;-83
2023/04/25 04:01:13;;;;;;;9.52;6.60;;;10.70;67.10;;;;;;5075908;27;115693;-83
2023/04/25 04:03:41;;;;;;;7.03;5.80;;;10.70;67.00;;;;;;5092381;27;116808;-83
2023/04/25 04:06:09;;;;;;;7.68;6.00;;;10.70;66.80;;;;;;5092887;27;114389;-83
2023/04/25 04:08:39;;;;;;;8.82;7.10;;;10.70;66.80;;;;;;5073673;27;115903;-84
2023/04/25 04:11:11;;;;;;;9.25;6.57;;;10.70;66.70;;;;;;5091535;27;114777;-84
2023/04/25 04:13:39;;;;;;;7.97;6.30;;;10.70;66.70;;;;;;5090761;27;114214;-84
2023/04/25 04:16:07;;;;;;;7.95;6.93;;;10.80;66.40;;;;;;5091983;27;114398;-84
2023/04/25 04:18:35;;;;;;;8.43;6.47;;;10.80;66.30;;;;;;5072709;27;114867;-84
2023/04/25 04:21:02;;;;;;;9.18;7.03;;;10.80;65.90;;;;;;5054273;27;115542;-84
2023/04/25 04:23:33;;;;;;;7.28;6.47;;;10.70;65.90;;;;;;5051758;27;114741;-84
2023/04/25 04:26:01;;;;;;;8.10;6.78;;;10.70;66.00;;;;;;5054146;27;116431;-85
2023/04/25 04:28:51;;;;;;;7.78;6.57;;;10.80;65.90;;;;;;5086810;27;116736;-83
2023/04/25 04:31:44;;;;;;;7.60;6.30;;;10.70;65.80;;;;;;5086548;27;114610;-83
2023/04/25 04:34:12;;;;;;;8.82;6.85;;;10.70;66.10;;;;;;5057107;27;115841;-84
2023/04/25 04:36:39;;;;;;;8.63;6.25;;;10.70;65.10;;;;;;5019648;27;114711;-84
2023/04/25 04:39:08;;;;;;;8.68;6.35;;;10.60;64.80;;;;;;5047640;27;116717;-84
2023/04/25 04:41:42;;;;;;;10.00;7.47;;;10.50;64.90;;;;;;5050680;27;115392;-82
2023/04/25 04:44:32;;;;;;;9.32;6.93;;;10.50;65.20;;;;;;5061044;27;114363;-83
2023/04/25 04:47:30;;;;;;;11.80;7.57;;;10.40;65.40;;;;;;5037530;27;114464;-81
2023/04/25 04:50:11;;;;;;;10.57;8.95;;;10.40;65.20;;;;;;5053264;27;114937;-83
2023/04/25 04:52:55;;;;;;;9.38;7.20;;;10.40;65.20;;;;;;5052197;27;115733;-84
2023/04/25 04:55:42;;;;;;;7.88;6.55;;;10.40;65.30;;;;;;5065682;27;114481;-82
2023/04/25 04:58:44;;;;;;;9.50;6.72;;;10.50;65.30;;;;;;5007613;27;116145;-81
2023/04/25 05:01:31;;;;;;;10.07;6.90;;;10.50;65.20;;;;;;5037050;27;116981;-83
2023/04/25 05:04:28;;;;;;;10.90;8.02;;;10.50;65.10;;;;;;5009805;27;114595;-83
2023/04/25 05:07:26;;;;;;;10.55;7.55;;;10.50;66.20;;;;;;5064013;27;114282;-83
2023/04/25 05:10:10;;;;;;;13.00;9.83;;;10.60;66.50;;;;;;5063903;27;116185;-82
2023/04/25 05:12:40;;;;;;;11.85;8.45;;;10.60;66.50;;;;;;5086371;27;115001;-84
2023/04/25 05:15:07;;;;;;;9.07;6.60;;;10.70;66.00;;;;;;5078555;27;114734;-84
2023/04/25 05:17:34;;;;;;;12.98;10.60;;;10.70;65.90;;;;;;5069324;27;114687;-84
2023/04/25 05:20:15;;;;;;;10.85;7.65;;;10.70;65.80;;;;;;5053762;27;114468;-84
2023/04/25 05:23:00;;;;;;;8.20;6.20;;;10.70;65.60;;;;;;5068657;27;115069;-84
2023/04/25 05:25:52;;;;;;;9.38;6.40;;;10.70;65.50;;;;;;5068977;27;114712;-83
2023/04/25 05:28:32;;;;;;;8.55;6.65;;;10.70;65.20;;;;;;5079515;27;114247;-84
2023/04/25 05:31:23;;;;;;;6.72;5.65;;;10.70;65.40;;;;;;5062863;27;116516;-84
2023/04/25 05:34:04;;;;;;;8.35;6.13;;;10.80;64.90;;;;;;5064940;27;114936;-84
2023/04/25 05:36:42;;;;;;;7.53;5.80;;;10.80;64.10;;;;;;5083612;27;115064;-83
2023/04/25 05:39:10;;;;;;;8.10;6.10;;;10.80;64.40;;;;;;5056984;27;114964;-83
2023/04/25 05:41:56;;;;;;;10.93;6.60;;;10.80;64.60;;;;;;5086427;27;114470;-83
2023/04/25 05:44:44;;;;;;;7.65;6.28;;;10.80;64.30;;;;;;5072950;27;114972;-84
2023/04/25 05:47:34;;;;;;;7.45;5.75;;;10.80;64.20;;;;;;5060898;27;114630;-83
2023/04/25 05:50:09;;;;;;;8.60;6.63;;;10.80;64.00;;;;;;5058001;27;115322;-84
2023/04/25 05:52:56;;;;;;;7.55;5.70;;;10.80;63.60;;;;;;5055902;27;114760;-84
2023/04/25 05:55:27;;;;;;;8.15;6.45;;;10.90;62.70;;;;;;5068002;27;116119;-84
2023/04/25 05:57:56;;;;;;;8.38;6.00;;;10.80;62.90;;;;;;5065824;27;117711;-82
2023/04/25 06:00:23;;;;;;;9.52;6.93;;;10.80;62.80;;;;;;5079191;27;116789;-84
2023/04/25 06:02:50;;;;;;;11.05;6.55;;;10.80;63.50;;;;;;5067866;27;114568;-82
2023/04/25 06:05:18;;;;;;;8.85;6.82;;;10.90;63.30;;;;;;5030305;27;115435;-83
2023/04/25 06:07:51;;;;;;;8.40;5.72;;;10.90;63.60;;;;;;5039325;27;114853;-83
2023/04/25 06:10:21;;;;;;;7.80;6.22;;;10.90;62.90;;;;;;5065233;27;114333;-83
2023/04/25 06:12:48;;;;;;;8.40;6.50;;;11.00;62.70;;;;;;5050051;27;114419;-84
2023/04/25 06:15:17;;;;;;;9.38;7.00;;;11.00;62.70;;;;;;5029218;27;114854;-83
2023/04/25 06:17:54;;;;;;;9.55;6.85;;;11.00;62.10;;;;;;5046843;27;114523;-82
2023/04/25 06:20:24;;;;;;;8.30;6.70;;;11.00;61.60;;;;;;5034806;27;114242;-84
2023/04/25 06:22:54;;;;;;;8.75;6.40;;;11.10;61.30;;;;;;5050606;27;114462;-83
2023/04/25 06:25:31;;;;;;;8.68;6.63;;;11.00;61.40;;;;;;5063116;27;115251;-84
2023/04/25 06:27:59;;;;;;;8.63;6.45;;;11.10;61.80;;;;;;5063769;27;115112;-83
2023/04/25 06:30:27;;;;;;;8.98;6.43;;;11.00;61.40;;;;;;5045379;27;114759;-83
2023/04/25 06:33:01;;;;;;;8.95;6.30;;;11.10;61.30;;;;;;5031684;27;114609;-84
2023/04/25 06:35:29;;;;;;;8.50;6.68;;;11.10;61.30;;;;;;5029663;27;115041;-84
2023/04/25 06:37:57;;;;;;;7.93;6.03;;;11.20;61.50;;;;;;5030752;27;115103;-83
2023/04/25 06:40:25;;;;;;;8.48;5.93;;;11.20;61.70;;;;;;5060401;27;114897;-83
2023/04/25 06:42:53;;;;;;;9.73;6.10;;;11.20;60.90;;;;;;5060871;27;114519;-85
2023/04/25 06:45:55;;;;;;;8.98;5.78;;;11.30;59.90;;;;;;5043465;27;119326;-84
2023/04/25 06:48:25;;;;;;;9.43;6.43;;;11.30;59.80;;;;;;5089752;27;119345;-84
2023/04/25 06:50:56;;;;;;;7.00;5.38;;;11.30;60.20;;;;;;5058624;27;114261;-84
2023/04/25 06:53:30;;;;;;;8.23;6.18;;;11.30;59.90;;;;;;5057335;27;114409;-83
2023/04/25 06:56:00;;;;;;;7.75;5.57;;;11.40;60.00;;;;;;5058243;27;119838;-84
2023/04/25 06:58:46;;;;;;;7.45;5.68;;;11.50;59.50;;;;;;5058854;27;116631;-84
2023/04/25 07:01:21;;;;;;;7.80;5.60;;;11.50;59.50;;;;;;5046951;27;114559;-84
2023/04/25 07:03:51;;;;;;;10.32;6.13;;;11.60;59.50;;;;;;5031478;27;114612;-84
2023/04/25 07:06:19;;;;;;;8.52;5.20;;;11.70;59.30;;;;;;5040081;27;118445;-84
2023/04/25 07:08:46;;;;;;;9.35;5.40;;;11.70;58.30;;;;;;5057392;27;114740;-84
2023/04/25 07:11:13;;;;;;;8.07;5.72;;;11.80;58.30;;;;;;5062663;27;114539;-83
2023/04/25 07:13:41;;;;;;;6.70;5.40;;;11.80;58.00;;;;;;5088592;27;114601;-84
2023/04/25 07:16:08;;;;;;;8.68;6.40;;;11.80;57.60;;;;;;5088816;27;116359;-84
2023/04/25 07:18:36;;;;;;;7.95;5.35;;;11.90;57.40;;;;;;5057465;27;115208;-84
2023/04/25 07:21:03;;;;;;;6.90;5.93;;;11.90;56.70;;;;;;5060600;27;114332;-83
2023/04/25 07:23:32;;;;;;;8.57;5.72;;;11.90;57.10;;;;;;5066852;27;114613;-84
2023/04/25 07:26:08;;;;;;;11.73;5.72;;;11.90;57.10;;;;;;5043980;27;115063;-83
2023/04/25 07:28:40;;;;;;;13.07;6.03;;;11.90;56.30;;;;;;5048694;27;115718;-83
2023/04/25 07:31:07;;;;;;;10.45;6.40;;;11.90;56.40;;;;;;5068425;27;114614;-82
2023/04/25 07:33:35;;;;;;;7.60;6.45;;;11.90;56.10;;;;;;5067725;27;115449;-83
2023/04/25 07:36:03;;;;;;;8.98;5.80;;;11.90;56.30;;;;;;5067550;27;115422;-83
2023/04/25 07:38:37;;;;;;;8.18;5.15;;;12.00;56.20;;;;;;5066737;27;114628;-84
2023/04/25 07:41:05;;;;;;;7.78;5.40;;;12.10;55.60;;;;;;5023592;27;114669;-83
2023/04/25 07:43:32;;;;;;;7.55;5.35;;;12.10;55.00;;;;;;5069537;27;114584;-83
2023/04/25 07:46:00;;;;;;;8.77;5.85;;;12.10;55.40;;;;;;5064928;27;114957;-83
2023/04/25 07:48:30;;;;;;;9.77;5.57;;;12.10;54.80;;;;;;5078438;27;117152;-84
2023/04/25 07:50:57;;;;;;;9.57;5.82;;;12.20;55.30;;;;;;5065604;27;114500;-84
2023/04/25 07:53:25;;;;;;;6.03;5.25;;;12.20;54.90;;;;;;5066954;27;114392;-84
2023/04/25 07:55:57;;;;;;;6.72;5.70;;;12.30;54.80;;;;;;5059168;27;114852;-85
2023/04/25 07:58:25;;;;;;;9.18;6.13;;;12.40;54.90;;;;;;5074922;27;114624;-83
2023/04/25 08:01:03;;;;;;;7.57;5.40;;;12.40;54.30;;;;;;5063738;27;114680;-84
2023/04/25 08:03:51;;;;;;;8.90;6.57;;;12.50;54.00;;;;;;5016779;27;114488;-83
2023/04/25 08:06:43;;;;;;;7.50;5.45;;;12.50;54.40;;;;;;5049002;27;118354;-84
2023/04/25 08:09:19;;;;;;;7.43;5.68;;;12.50;53.70;;;;;;5049370;27;114618;-83
2023/04/25 08:11:46;;;;;;;8.88;6.55;;;12.40;53.30;;;;;;5033214;27;114717;-84
2023/04/25 08:14:21;;;;;;;7.57;5.05;;;12.40;53.10;;;;;;5062992;27;114489;-84
2023/04/25 08:16:48;;;;;;;8.35;5.75;;;12.30;53.40;;;;;;5062983;27;115544;-84
2023/04/25 08:19:17;;;;;;;6.07;5.05;;;12.30;52.60;;;;;;5048651;27;115045;-84
2023/04/25 08:21:46;;;;;;;6.97;5.18;;;12.30;51.80;;;;;;5050938;27;114679;-84
2023/04/25 08:24:18;;;;;;;6.15;5.22;;;12.20;51.40;;;;;;5030892;27;114434;-84
2023/04/25 08:26:46;;;;;;;6.80;5.00;;;12.20;51.20;;;;;;5048678;27;115174;-84
2023/04/25 08:29:19;;;;;;;9.77;5.75;;;12.20;51.60;;;;;;5050269;27;116378;-84
2023/04/25 08:31:46;;;;;;;8.05;5.90;;;12.20;50.40;;;;;;5040837;27;119614;-84
2023/04/25 08:34:15;;;;;;;8.02;6.13;;;12.30;50.90;;;;;;5064976;27;114377;-84
2023/04/25 08:36:48;;;;;;;7.10;5.45;;;12.30;50.60;;;;;;5036196;27;118609;-84
2023/04/25 08:39:38;;;;;;;8.68;4.93;;;12.40;50.90;;;;;;5064077;27;114580;-84
2023/04/25 08:42:20;;;;;;;7.18;4.63;;;12.50;51.70;;;;;;5067086;27;114266;-82
2023/04/25 08:44:48;;;;;;;5.88;4.30;;;12.60;51.00;;;;;;5031431;27;114819;-83
2023/04/25 08:47:19;;;;;;;6.78;4.78;;;12.70;50.00;;;;;;5061449;27;114970;-82
2023/04/25 08:49:51;;;;;;;9.93;5.38;;;12.90;49.30;;;;;;5046153;27;116269;-83
2023/04/25 08:52:24;;;;;;;8.65;4.40;;;12.90;49.40;;;;;;5065403;27;114791;-83
2023/04/25 08:54:52;;;;;;;5.82;4.72;;;13.00;49.10;;;;;;5043703;27;114577;-83
2023/04/25 08:57:21;;;;;;;7.90;4.85;;;13.00;49.10;;;;;;5030329;27;114984;-85
2023/04/25 08:59:50;;;;;;;5.20;3.83;;;13.00;48.60;;;;;;5049071;27;114836;-83
2023/04/25 09:02:20;;;;;;;5.25;3.97;;;13.10;48.20;;;;;;5042324;27;114484;-84
2023/04/25 09:04:50;;;;;;;12.52;4.03;;;13.10;48.40;;;;;;5091851;27;114619;-84
2023/04/25 09:07:18;;;;;;;6.70;4.72;;;13.20;47.90;;;;;;5027207;27;118412;-84
2023/04/25 09:09:45;;;;;;;5.13;3.70;;;13.10;47.40;;;;;;5042558;27;116887;-84
2023/04/25 09:12:24;;;;;;;4.70;3.50;;;13.10;46.40;;;;;;5046085;27;114513;-83
2023/04/25 09:15:11;;;;;;;5.55;3.63;;;13.00;46.00;;;;;;5050113;27;119468;-82
2023/04/25 09:18:04;;;;;;;6.30;3.97;;;12.90;46.70;;;;;;5042216;27;117842;-83
2023/04/25 09:20:42;;;;;;;5.93;4.20;;;12.90;46.80;;;;;;5022799;27;117550;-84
2023/04/25 09:23:28;;;;;;;7.25;4.95;;;12.90;46.50;;;;;;5039661;27;114217;-84
2023/04/25 09:25:56;;;;;;;6.30;3.70;;;12.90;47.70;;;;;;5044402;27;114458;-83
2023/04/25 09:28:26;;;;;;;6.60;4.15;;;12.90;47.00;;;;;;5044875;27;115152;-84
2023/04/25 09:30:59;;;;;;;6.75;3.72;;;13.00;46.80;;;;;;5017270;27;118341;-83
2023/04/25 09:33:48;;;;;;;7.25;4.47;;;13.10;46.80;;;;;;5044809;27;114504;-83
2023/04/25 09:36:18;;;;;;;6.63;4.05;;;13.00;47.10;;;;;;5066040;27;114437;-83
2023/04/25 09:39:00;;;;;;;5.85;3.97;;;13.10;46.30;;;;;;5064221;27;114922;-82
2023/04/25 09:41:37;;;;;;;6.07;3.47;;;13.00;46.20;;;;;;5064326;27;116540;-82
2023/04/25 09:44:04;;;;;;;7.53;4.15;;;13.00;45.90;;;;;;5051311;27;114546;-83
2023/04/25 09:46:39;;;;;;;6.68;4.05;;;13.10;46.00;;;;;;5092166;27;114713;-83
2023/04/25 09:49:12;;;;;;;6.03;3.67;;;13.20;45.90;;;;;;5047198;27;115045;-83
2023/04/25 09:51:59;;;;;;;5.82;4.22;;;13.10;46.10;;;;;;5047300;27;115763;-83
2023/04/25 09:54:42;;;;;;;6.32;4.03;;;13.10;45.20;;;;;;5069134;27;114318;-83
2023/04/25 09:57:23;;;;;;;6.93;4.25;;;13.00;45.10;;;;;;5063419;27;118611;-82
2023/04/25 09:59:53;;;;;;;7.25;4.93;;;13.00;45.00;;;;;;5048516;27;116337;-81
2023/04/25 10:02:26;;;;;;;6.03;3.95;;;13.00;45.50;;;;;;5049093;27;116263;-82
2023/04/25 10:05:00;;;;;;;6.97;4.20;;;13.00;45.10;;;;;;5066382;27;114616;-82
2023/04/25 10:07:33;;;;;;;5.85;4.05;;;12.90;45.60;;;;;;5034863;27;114525;-82
2023/04/25 10:10:02;;;;;;;5.97;3.92;;;13.00;46.40;;;;;;5032356;27;117399;-83
2023/04/25 10:12:32;;;;;;;7.05;4.55;;;13.10;45.90;;;;;;5069325;27;115932;-83
2023/04/25 10:15:00;;;;;;;6.30;4.50;;;13.10;45.00;;;;;;5051654;27;116248;-84
2023/04/25 10:17:27;;;;;;;5.75;3.92;;;13.00;45.40;;;;;;5065802;27;114391;-82
2023/04/25 10:19:56;;;;;;;4.55;3.50;;;13.00;44.80;;;;;;5068763;27;115784;-82
2023/04/25 10:22:31;;;;;;;7.35;3.65;;;13.00;44.50;;;;;;5064508;27;114782;-82
2023/04/25 10:24:58;;;;;;;5.95;4.30;;;13.20;44.20;;;;;;5050568;27;114207;-82
2023/04/25 10:27:27;;;;;;;6.35;4.30;;;13.20;44.10;;;;;;5036942;27;114689;-83
2023/04/25 10:30:11;;;;;;;6.80;4.03;;;13.20;44.10;;;;;;5065034;27;116440;-82
2023/04/25 10:32:39;;;;;;;6.43;3.83;;;13.20;44.50;;;;;;5066051;27;115143;-82
2023/04/25 10:35:13;;;;;;;6.75;4.53;;;13.20;44.40;;;;;;5066607;27;114313;-82
2023/04/25 10:38:12;;;;;;;8.18;4.22;;;13.20;44.30;;;;;;5066890;27;114763;-83
2023/04/25 10:40:39;;;;;;;8.48;4.93;;;13.30;45.00;;;;;;5064909;27;114672;-82
2023/04/25 10:43:33;;;;;;;5.53;3.95;;;13.20;45.00;;;;;;5064452;27;115546;-83
2023/04/25 10:46:00;;;;;;;9.50;3.80;;;13.30;43.80;;;;;;5040835;27;114485;-83
2023/04/25 10:48:31;;;;;;;6.47;3.67;;;13.20;44.10;;;;;;5048306;27;114312;-83
2023/04/25 10:51:12;;;;;;;8.70;4.07;;;13.20;43.90;;;;;;5063909;27;115474;-83
2023/04/25 10:53:39;;;;;;;5.32;4.13;;;13.30;43.10;;;;;;5029314;27;115647;-84
2023/04/25 10:56:33;;;;;;;7.72;4.43;;;13.20;43.80;;;;;;5065391;27;115703;-84
2023/04/25 10:59:11;;;;;;;7.55;4.65;;;13.30;44.10;;;;;;5042823;27;114552;-83
2023/04/25 11:01:39;;;;;;;5.38;3.58;;;13.30;44.20;;;;;;5067103;27;116171;-84
2023/04/25 11:04:26;;;;;;;4.80;3.60;;;13.30;44.10;;;;;;5067302;27;117547;-84
2023/04/25 11:07:22;;;;;;;5.60;3.60;;;13.40;43.50;;;;;;5053105;27;114294;-83
2023/04/25 11:09:50;;;;;;;6.40;3.95;;;13.40;43.20;;;;;;5051888;27;114403;-83
2023/04/25 11:12:18;;;;;;;6.85;4.00;;;13.30;43.20;;;;;;5069327;27;114985;-84
2023/04/25 11:14:45;;;;;;;5.55;3.97;;;13.30;43.50;;;;;;5068933;27;114604;-83
2023/04/25 11:17:14;;;;;;;6.85;4.90;;;13.40;43.40;;;;;;5070033;27;114259;-83
2023/04/25 11:19:41;;;;;;;6.72;4.15;;;13.40;43.30;;;;;;5069628;27;114298;-84
2023/04/25 11:22:10;;;;;;;5.85;3.92;;;13.40;43.00;;;;;;5053618;27;114986;-84
2023/04/25 11:24:37;;;;;;;5.70;4.18;;;13.30;43.30;;;;;;5051895;27;114807;-83
2023/04/25 11:27:07;;;;;;;7.63;4.25;;;13.30;43.30;;;;;;5033990;27;114665;-85
2023/04/25 11:30:15;;;;;;;8.52;4.13;;;13.30;43.30;;;;;;5058480;27;114455;-84
2023/04/25 11:32:43;;;;;;;5.53;4.50;;;13.30;43.70;;;;;;5073989;27;115157;-84
2023/04/25 11:35:10;;;;;;;7.70;4.55;;;13.30;43.60;;;;;;5068190;27;114701;-84
2023/04/25 11:37:41;;;;;;;8.35;4.70;;;13.30;43.00;;;;;;5049643;27;114562;-85
2023/04/25 11:40:12;;;;;;;9.60;6.15;;;13.30;43.00;;;;;;5050010;27;114436;-85
2023/04/25 11:42:39;;;;;;;8.50;4.78;;;13.30;43.50;;;;;;5049029;27;115612;-84
2023/04/25 11:45:07;;;;;;;8.23;4.63;;;13.30;43.70;;;;;;5065822;27;114641;-84
2023/04/25 11:47:36;;;;;;;9.80;5.15;;;13.20;43.20;;;;;;5047558;27;114424;-84
2023/04/25 11:50:05;;;;;;;5.93;4.30;;;13.20;43.50;;;;;;5047071;27;114666;-84
2023/04/25 11:52:41;;;;;;;7.15;4.20;;;13.20;43.60;;;;;;5040179;27;114638;-84
2023/04/25 11:55:18;;;;;;;8.80;4.65;;;13.20;43.60;;;;;;5066420;27;114650;-84
2023/04/25 11:57:50;;;;;;;7.18;4.50;;;13.30;43.60;;;;;;5066985;27;114692;-83
2023/04/25 12:00:21;;;;;;;7.68;4.53;;;13.20;43.00;;;;;;5072577;27;115799;-83
2023/04/25 12:02:54;;;;;;;8.70;5.13;;;13.20;43.20;;;;;;5053897;27;114904;-84
2023/04/25 12:05:27;;;;;;;7.75;4.53;;;13.10;43.30;;;;;;5066432;27;118046;-84
2023/04/25 12:08:13;;;;;;;7.32;4.55;;;13.10;43.00;;;;;;5077499;27;114611;-84
2023/04/25 12:10:41;;;;;;;9.68;5.22;;;13.20;43.30;;;;;;5064394;27;114424;-84
2023/04/25 12:13:21;;;;;;;9.00;5.50;;;13.00;43.50;;;;;;5032848;27;117654;-84
2023/04/25 12:15:48;;;;;;;7.45;5.10;;;13.00;44.20;;;;;;5031427;27;114903;-84
2023/04/25 12:18:21;;;;;;;9.57;5.72;;;12.90;44.40;;;;;;5066265;27;114369;-83
2023/04/25 12:20:48;;;;;;;7.70;5.55;;;13.00;44.20;;;;;;5029723;27;114589;-81
2023/04/25 12:23:15;;;;;;;8.18;5.70;;;13.00;44.50;;;;;;5046559;27;114979;-83
2023/04/25 12:25:44;;;;;;;6.60;5.10;;;13.00;44.60;;;;;;5049651;27;115288;-84
2023/04/25 12:28:16;;;;;;;8.65;5.25;;;13.10;44.50;;;;;;5047780;27;114515;-84
2023/04/25 12:30:58;;;;;;;10.45;5.07;;;13.20;44.70;;;;;;5055450;27;114537;-82
2023/04/25 12:33:30;;;;;;;6.80;5.10;;;13.30;44.00;;;;;;5065139;27;115175;-83
2023/04/25 12:35:58;;;;;;;9.20;5.60;;;13.30;43.60;;;;;;5031172;27;114688;-84
2023/04/25 12:38:33;;;;;;;7.97;4.95;;;13.30;44.00;;;;;;5051166;27;114685;-83
2023/04/25 12:41:00;;;;;;;8.30;5.45;;;13.40;43.80;;;;;;5049712;27;114640;-85
2023/04/25 12:43:28;;;;;;;9.18;5.93;;;13.40;43.90;;;;;;5072559;27;114892;-84
2023/04/25 12:45:56;;;;;;;10.02;6.30;;;13.50;43.80;;;;;;5055586;27;114680;-84
2023/04/25 12:48:23;;;;;;;7.88;5.65;;;13.60;43.50;;;;;;5035216;27;114510;-84
2023/04/25 12:50:51;;;;;;;11.48;5.47;;;13.60;44.10;;;;;;5066133;27;114584;-85
2023/04/25 12:53:19;;;;;;;8.88;5.30;;;13.70;44.00;;;;;;5064149;27;117963;-84
2023/04/25 12:55:49;;;;;;;7.63;5.45;;;13.80;43.80;;;;;;5064571;27;114729;-84
2023/04/25 12:58:18;;;;;;;8.63;6.35;;;13.90;43.40;;;;;;5066151;27;115094;-85
2023/04/25 13:00:45;;;;;;;8.60;5.75;;;13.90;43.10;;;;;;5065168;27;114225;-84